Wahpeton, MN

11:14 PM CST on December 14, 2019 (GMT -0600)
Stern

Weather History for KBWP - October, 2019

Change the Weather History Date:

Saturday, October 26, 2019

  Actual Average (KFFM) Record (KFFM)
Temperature  
Mean Temperature 46 °F -  
Max Temperature 55 °F 52 °F 83 °F (1955)
Min Temperature 37 °F 32 °F 16 °F (1988)
Degree Days  
Heating Degree Days 19    
Moisture  
Dew Point 33 °F    
Average Humidity 66    
Maximum Humidity 81    
Minimum Humidity 41    
Precipitation  
Precipitation 0.00 in - - ()
Sea Level Pressure  
Sea Level Pressure 29.69 in    
Wind  
Wind Speed 12 mph ()    
Max Wind Speed 21 mph    
Max Gust Speed 34 mph    
Visibility 10.0 miles    
Events      
Averages and records for this station are not official NWS values.
T = Trace of Precipitation, MM = Missing Value Source: Averaged Metar Reports

Daily Weather History Graph

Daily Weather History Graph

Search for Another Location

Airport or City:

Astronomy

Oct. 26, 2019 Rise Set
Actual Time 7:58 AM CDT 6:21 PM CDT
Civil Twilight 7:27 AM CDT 6:52 PM CDT
Nautical Twilight 6:52 AM CDT 7:27 PM CDT
Astronomical Twilight 6:17 AM CDT 8:02 PM CDT
Moon 5:44 AM CDT (10/26) 6:06 PM CDT (10/26)
Length of Visible Light 11h 24m
Length of Day
10h 22m
Waning Crescent, 3% of the Moon is Illuminated
Oct 26
Waning Crescent
Oct 27
New
Nov 4
First Quarter
Nov 12
Full
Nov 19
Last Quarter

Hourly Weather History & Observations

Time (CDT) Temp. Windchill Dew Point Humidity Pressure Visibility Wind Dir Wind Speed Gust Speed Precip Events Conditions
12:15 AM 41.0 °F 33.5 °F 32.0 °F 70% 29.81 in 10.0 mi South 13.8 mph - N/A   Unknown
12:35 AM 42.8 °F 35.4 °F 32.0 °F 66% 29.80 in 10.0 mi South 15.0 mph - N/A   Unknown
12:55 AM 42.8 °F 34.8 °F 32.0 °F 66% 29.79 in 10.0 mi South 17.3 mph - N/A   Unknown
1:15 AM 41.0 °F 33.9 °F 32.0 °F 70% 29.79 in 10.0 mi SSE 12.7 mph - N/A   Unknown
1:55 AM 39.2 °F 30.8 °F 32.0 °F 75% 29.76 in 10.0 mi SSE 15.0 mph - N/A   Unknown
2:15 AM 41.0 °F 33.5 °F 32.0 °F 70% 29.76 in 10.0 mi SSE 13.8 mph - N/A   Unknown
2:35 AM 39.2 °F 31.2 °F 32.0 °F 75% 29.75 in 10.0 mi SSE 13.8 mph - N/A   Unknown
2:55 AM 39.2 °F 30.8 °F 32.0 °F 75% 29.74 in 10.0 mi SSE 15.0 mph - N/A   Unknown
3:15 AM 37.4 °F 28.5 °F 32.0 °F 81% 29.72 in 10.0 mi SSE 15.0 mph - N/A   Unknown
3:35 AM 39.2 °F 31.2 °F 32.0 °F 75% 29.71 in 10.0 mi SSE 13.8 mph 20.7 mph N/A   Unknown
3:55 AM 37.4 °F 28.5 °F 32.0 °F 81% 29.70 in 10.0 mi SSE 15.0 mph - N/A   Unknown
4:15 AM 39.2 °F 31.6 °F 32.0 °F 75% 29.69 in 10.0 mi SSE 12.7 mph - N/A   Unknown
4:35 AM 37.4 °F 28.9 °F 32.0 °F 81% 29.69 in 10.0 mi SSE 13.8 mph - N/A   Unknown
4:55 AM 37.4 °F 28.2 °F 32.0 °F 81% 29.67 in 10.0 mi SSE 16.1 mph - N/A   Unknown
5:15 AM 37.4 °F 29.3 °F 32.0 °F 81% 29.67 in 10.0 mi SSE 12.7 mph - N/A   Unknown
5:35 AM 37.4 °F 28.5 °F 32.0 °F 81% 29.66 in 10.0 mi SSE 15.0 mph - N/A   Unknown
5:55 AM 37.4 °F 28.9 °F 32.0 °F 81% 29.65 in 10.0 mi SSE 13.8 mph - N/A   Unknown
6:15 AM 37.4 °F 28.5 °F 32.0 °F 81% 29.65 in 10.0 mi SSE 15.0 mph - N/A   Unknown
6:35 AM 37.4 °F 28.5 °F 32.0 °F 81% 29.65 in 10.0 mi SSE 15.0 mph - N/A   Unknown
6:55 AM 37.4 °F 29.3 °F 32.0 °F 81% 29.64 in 10.0 mi SSE 12.7 mph - N/A   Unknown
7:15 AM 37.4 °F 28.9 °F 32.0 °F 81% 29.64 in 10.0 mi SSE 13.8 mph - N/A   Unknown
7:35 AM 37.4 °F 29.8 °F 32.0 °F 81% 29.63 in 10.0 mi SSE 11.5 mph - N/A   Unknown
7:55 AM 37.4 °F 30.8 °F 32.0 °F 81% 29.63 in 10.0 mi SE 9.2 mph - N/A   Unknown
8:15 AM 37.4 °F 30.8 °F 32.0 °F 81% 29.64 in 10.0 mi SE 9.2 mph - N/A   Unknown
8:35 AM 37.4 °F 29.8 °F 32.0 °F 81% 29.64 in 10.0 mi SE 11.5 mph - N/A   Unknown
8:55 AM 37.4 °F 32.1 °F 32.0 °F 81% 29.66 in 10.0 mi SSE 6.9 mph - N/A   Unknown
9:15 AM 37.4 °F 29.3 °F 32.0 °F 81% 29.64 in 10.0 mi SE 12.7 mph - N/A   Unknown
9:35 AM 41.0 °F 33.1 °F 32.0 °F 70% 29.63 in 10.0 mi SSE 15.0 mph 18.4 mph N/A   Unknown
9:55 AM 42.8 °F 36.6 °F 32.0 °F 66% 29.65 in 10.0 mi SSE 11.5 mph - N/A   Unknown
10:15 AM 42.8 °F 34.8 °F 32.0 °F 66% 29.63 in 10.0 mi SSE 17.3 mph - N/A   Unknown
10:35 AM 44.6 °F 38.4 °F 32.0 °F 61% 29.64 in 10.0 mi SSE 12.7 mph - N/A   Unknown
10:55 AM 46.4 °F 41.1 °F 32.0 °F 57% 29.64 in 10.0 mi South 11.5 mph 20.7 mph N/A   Unknown
11:15 AM 46.4 °F 40.7 °F 32.0 °F 57% 29.64 in 10.0 mi South 12.7 mph - N/A   Unknown
11:35 AM 48.2 °F - 32.0 °F 54% 29.64 in 10.0 mi SSE 12.7 mph - N/A   Unknown
11:55 AM 48.2 °F - 32.0 °F 54% 29.64 in 10.0 mi South 13.8 mph - N/A   Unknown
12:15 PM 50.0 °F - 32.0 °F 50% 29.64 in 10.0 mi South 12.7 mph - N/A   Unknown
12:35 PM 50.0 °F - 32.0 °F 50% 29.64 in 10.0 mi South 9.2 mph - N/A   Unknown
12:55 PM 51.8 °F - 32.0 °F 47% 29.64 in 10.0 mi South 9.2 mph - N/A   Unknown
1:15 PM 51.8 °F - 33.8 °F 50% 29.64 in 10.0 mi South 6.9 mph - N/A   Unknown
1:35 PM 51.8 °F - 32.0 °F 47% 29.64 in 10.0 mi SSE 6.9 mph - N/A   Unknown
1:55 PM 53.6 °F - 33.8 °F 47% 29.63 in 10.0 mi SSE 5.8 mph - N/A   Unknown
2:15 PM 53.6 °F - 32.0 °F 44% 29.63 in 10.0 mi South 6.9 mph - N/A   Unknown
2:35 PM 53.6 °F - 32.0 °F 44% 29.64 in 10.0 mi Calm Calm - N/A   Unknown
2:55 PM 55.4 °F - 33.8 °F 44% 29.64 in 10.0 mi SSW 4.6 mph - N/A   Unknown
3:15 PM 55.4 °F - 32.0 °F 41% 29.64 in 10.0 mi Calm Calm - N/A   Unknown
3:35 PM 55.4 °F - 32.0 °F 41% 29.64 in 10.0 mi Calm Calm - N/A   Unknown
3:55 PM 55.4 °F - 33.8 °F 44% 29.64 in 10.0 mi North 3.5 mph - N/A   Unknown
4:15 PM 53.6 °F - 32.0 °F 44% 29.64 in 10.0 mi Calm Calm - N/A   Unknown
4:35 PM 53.6 °F - 33.8 °F 47% 29.65 in 10.0 mi NNW 3.5 mph - N/A   Unknown
4:55 PM 55.4 °F - 35.6 °F 47% 29.65 in 10.0 mi North 3.5 mph - N/A   Unknown
5:15 PM 53.6 °F - 35.6 °F 51% 29.67 in 10.0 mi NW 5.8 mph - N/A   Unknown
5:35 PM 51.8 °F - 37.4 °F 58% 29.67 in 10.0 mi NNW 19.6 mph - N/A   Unknown
5:55 PM 50.0 °F - 35.6 °F 58% 29.69 in 10.0 mi NNW 20.7 mph 24.2 mph N/A   Unknown
6:15 PM 48.2 °F - 35.6 °F 62% 29.70 in 10.0 mi NNW 19.6 mph 25.3 mph N/A   Unknown
6:35 PM 46.4 °F 39.2 °F 35.6 °F 66% 29.72 in 10.0 mi NNW 18.4 mph 25.3 mph N/A   Unknown
6:55 PM 46.4 °F 39.8 °F 35.6 °F 66% 29.72 in 10.0 mi NNW 16.1 mph 27.6 mph N/A   Unknown
7:15 PM 44.6 °F 37.2 °F 35.6 °F 71% 29.73 in 10.0 mi NW 17.3 mph 20.7 mph N/A   Unknown
7:35 PM 44.6 °F 37.2 °F 35.6 °F 71% 29.74 in 10.0 mi NNW 17.3 mph 28.8 mph N/A   Unknown
7:55 PM 44.6 °F 37.2 °F 33.8 °F 66% 29.74 in 10.0 mi NNW 17.3 mph 26.5 mph N/A   Unknown
8:15 PM 44.6 °F 37.4 °F 32.0 °F 61% 29.75 in 10.0 mi NNW 16.1 mph 28.8 mph N/A   Unknown
8:35 PM 42.8 °F 34.3 °F 32.0 °F 66% 29.76 in 10.0 mi NNW 19.6 mph 31.1 mph N/A   Unknown
8:55 PM 42.8 °F 34.0 °F 32.0 °F 66% 29.77 in 10.0 mi NNW 20.7 mph 34.5 mph N/A   Unknown
9:15 PM 42.8 °F 35.1 °F 32.0 °F 66% 29.78 in 10.0 mi NNW 16.1 mph 21.9 mph N/A   Unknown
9:35 PM 42.8 °F 34.8 °F 32.0 °F 66% 29.78 in 10.0 mi NNW 17.3 mph 26.5 mph N/A   Unknown
9:55 PM 42.8 °F 34.3 °F 32.0 °F 66% 29.79 in 10.0 mi NNW 19.6 mph 25.3 mph N/A   Unknown
10:15 PM 41.0 °F 32.5 °F 32.0 °F 70% 29.79 in 10.0 mi NNW 17.3 mph 20.7 mph N/A   Unknown
10:35 PM 41.0 °F 33.1 °F 32.0 °F 70% 29.80 in 10.0 mi NNW 15.0 mph - N/A   Unknown
10:55 PM 39.2 °F 29.8 °F 32.0 °F 75% 29.80 in 10.0 mi NNW 18.4 mph 25.3 mph N/A   Unknown
11:15 PM 37.4 °F 28.2 °F 32.0 °F 81% 29.81 in 10.0 mi NNW 16.1 mph 26.5 mph N/A   Unknown
11:35 PM 37.4 °F 28.9 °F 32.0 °F 81% 29.81 in 10.0 mi NNW 13.8 mph - N/A   Unknown
11:55 PM 37.4 °F 29.3 °F 32.0 °F 81% 29.80 in 10.0 mi NNW 12.7 mph 23.0 mph N/A   Unknown